sensor_id;sensor_type;location;lat;lon;timestamp;temperature;humidity
28530;DHT22;15737;49.760;6.632;2022-11-20T00:00:45;5.60;99.90
28530;DHT22;15737;49.760;6.632;2022-11-20T00:03:11;5.70;99.90
28530;DHT22;15737;49.760;6.632;2022-11-20T00:05:36;5.70;99.90
28530;DHT22;15737;49.760;6.632;2022-11-20T00:08:02;5.80;99.90
28530;DHT22;15737;49.760;6.632;2022-11-20T00:12:58;5.70;99.90
28530;DHT22;15737;49.760;6.632;2022-11-20T00:15:24;5.40;99.90
28530;DHT22;15737;49.760;6.632;2022-11-20T00:17:49;5.30;99.90
28530;DHT22;15737;49.760;6.632;2022-11-20T00:20:15;5.40;99.90
28530;DHT22;15737;49.760;6.632;2022-11-20T00:22:40;5.50;99.90
28530;DHT22;15737;49.760;6.632;2022-11-20T00:25:06;5.60;99.90
28530;DHT22;15737;49.760;6.632;2022-11-20T00:27:32;5.70;99.90
28530;DHT22;15737;49.760;6.632;2022-11-20T00:29:57;5.60;99.90
28530;DHT22;15737;49.760;6.632;2022-11-20T00:32:23;5.60;99.90
28530;DHT22;15737;49.760;6.632;2022-11-20T00:34:48;5.70;99.90
28530;DHT22;15737;49.760;6.632;2022-11-20T00:37:14;5.70;99.90
28530;DHT22;15737;49.760;6.632;2022-11-20T00:39:39;5.50;99.90
28530;DHT22;15737;49.760;6.632;2022-11-20T00:42:05;5.40;99.90
28530;DHT22;15737;49.760;6.632;2022-11-20T00:44:30;5.40;99.90
28530;DHT22;15737;49.760;6.632;2022-11-20T00:46:56;5.30;99.90
28530;DHT22;15737;49.760;6.632;2022-11-20T00:49:21;5.10;99.90
28530;DHT22;15737;49.760;6.632;2022-11-20T00:51:47;5.10;99.90
28530;DHT22;15737;49.760;6.632;2022-11-20T00:54:13;5.10;99.90
28530;DHT22;15737;49.760;6.632;2022-11-20T00:56:38;4.90;99.90
28530;DHT22;15737;49.760;6.632;2022-11-20T00:59:04;5.00;99.90
28530;DHT22;15737;49.760;6.632;2022-11-20T01:01:29;5.00;99.90
28530;DHT22;15737;49.760;6.632;2022-11-20T01:03:57;5.00;99.90
28530;DHT22;15737;49.760;6.632;2022-11-20T01:06:29;4.90;99.90
28530;DHT22;15737;49.760;6.632;2022-11-20T01:08:58;4.90;99.90
28530;DHT22;15737;49.760;6.632;2022-11-20T01:11:29;4.80;99.90
28530;DHT22;15737;49.760;6.632;2022-11-20T01:13:56;4.70;99.90
28530;DHT22;15737;49.760;6.632;2022-11-20T01:16:32;4.90;99.90
28530;DHT22;15737;49.760;6.632;2022-11-20T01:19:00;5.10;99.90
28530;DHT22;15737;49.760;6.632;2022-11-20T01:23:52;5.10;99.90
28530;DHT22;15737;49.760;6.632;2022-11-20T01:26:24;5.20;99.90
28530;DHT22;15737;49.760;6.632;2022-11-20T01:28:50;5.30;99.90
28530;DHT22;15737;49.760;6.632;2022-11-20T01:31:19;5.40;99.90
28530;DHT22;15737;49.760;6.632;2022-11-20T01:33:46;5.40;99.90
28530;DHT22;15737;49.760;6.632;2022-11-20T01:36:13;5.10;99.90
28530;DHT22;15737;49.760;6.632;2022-11-20T01:38:39;4.90;99.90
28530;DHT22;15737;49.760;6.632;2022-11-20T01:41:05;4.90;99.90
28530;DHT22;15737;49.760;6.632;2022-11-20T01:43:31;5.10;99.90
28530;DHT22;15737;49.760;6.632;2022-11-20T01:46:16;5.20;99.90
28530;DHT22;15737;49.760;6.632;2022-11-20T01:51:39;5.60;99.90
28530;DHT22;15737;49.760;6.632;2022-11-20T01:54:13;5.70;99.90
28530;DHT22;15737;49.760;6.632;2022-11-20T01:56:43;5.60;99.90
28530;DHT22;15737;49.760;6.632;2022-11-20T01:59:10;5.70;99.90
28530;DHT22;15737;49.760;6.632;2022-11-20T02:01:37;5.90;99.90
28530;DHT22;15737;49.760;6.632;2022-11-20T02:04:05;5.90;99.90
28530;DHT22;15737;49.760;6.632;2022-11-20T02:06:42;6.00;99.90
28530;DHT22;15737;49.760;6.632;2022-11-20T02:09:09;6.00;99.90
28530;DHT22;15737;49.760;6.632;2022-11-20T02:11:35;6.00;99.90
28530;DHT22;15737;49.760;6.632;2022-11-20T02:14:00;5.90;99.90
28530;DHT22;15737;49.760;6.632;2022-11-20T02:16:30;5.90;99.90
28530;DHT22;15737;49.760;6.632;2022-11-20T02:18:58;5.90;99.90
28530;DHT22;15737;49.760;6.632;2022-11-20T02:24:22;5.60;99.90
28530;DHT22;15737;49.760;6.632;2022-11-20T02:26:59;5.60;99.90
28530;DHT22;15737;49.760;6.632;2022-11-20T02:29:34;5.40;99.90
28530;DHT22;15737;49.760;6.632;2022-11-20T02:32:01;5.30;99.90
28530;DHT22;15737;49.760;6.632;2022-11-20T02:34:27;5.00;99.90
28530;DHT22;15737;49.760;6.632;2022-11-20T02:36:54;4.80;99.90
28530;DHT22;15737;49.760;6.632;2022-11-20T02:39:20;4.60;99.90
28530;DHT22;15737;49.760;6.632;2022-11-20T02:41:47;4.90;99.90
28530;DHT22;15737;49.760;6.632;2022-11-20T02:44:12;5.10;99.90
28530;DHT22;15737;49.760;6.632;2022-11-20T02:46:38;5.20;99.90
28530;DHT22;15737;49.760;6.632;2022-11-20T02:49:04;5.40;99.90
28530;DHT22;15737;49.760;6.632;2022-11-20T02:51:31;5.60;99.90
28530;DHT22;15737;49.760;6.632;2022-11-20T02:53:56;5.80;99.90
28530;DHT22;15737;49.760;6.632;2022-11-20T02:56:22;5.90;99.90
28530;DHT22;15737;49.760;6.632;2022-11-20T02:58:48;6.00;99.90
28530;DHT22;15737;49.760;6.632;2022-11-20T03:01:13;5.90;99.90
28530;DHT22;15737;49.760;6.632;2022-11-20T03:03:39;5.90;99.90
28530;DHT22;15737;49.760;6.632;2022-11-20T03:06:05;5.90;99.90
28530;DHT22;15737;49.760;6.632;2022-11-20T03:08:31;5.80;99.90
28530;DHT22;15737;49.760;6.632;2022-11-20T03:10:56;5.50;99.90
28530;DHT22;15737;49.760;6.632;2022-11-20T03:13:22;5.40;99.90
28530;DHT22;15737;49.760;6.632;2022-11-20T03:18:13;5.30;99.90
28530;DHT22;15737;49.760;6.632;2022-11-20T03:20:39;5.30;99.90
28530;DHT22;15737;49.760;6.632;2022-11-20T03:23:04;5.50;99.90
28530;DHT22;15737;49.760;6.632;2022-11-20T03:25:30;5.70;99.90
28530;DHT22;15737;49.760;6.632;2022-11-20T03:27:56;5.70;99.90
28530;DHT22;15737;49.760;6.632;2022-11-20T03:30:21;5.50;99.90
28530;DHT22;15737;49.760;6.632;2022-11-20T03:32:47;5.30;99.90
28530;DHT22;15737;49.760;6.632;2022-11-20T03:35:12;5.20;99.90
28530;DHT22;15737;49.760;6.632;2022-11-20T03:37:38;5.10;99.90
28530;DHT22;15737;49.760;6.632;2022-11-20T03:40:04;5.10;99.90
28530;DHT22;15737;49.760;6.632;2022-11-20T03:42:30;5.20;99.90
28530;DHT22;15737;49.760;6.632;2022-11-20T03:45:11;5.30;99.90
28530;DHT22;15737;49.760;6.632;2022-11-20T03:47:37;5.40;99.90
28530;DHT22;15737;49.760;6.632;2022-11-20T03:50:03;5.40;99.90
28530;DHT22;15737;49.760;6.632;2022-11-20T03:52:29;5.40;99.90
28530;DHT22;15737;49.760;6.632;2022-11-20T03:54:55;5.40;99.90
28530;DHT22;15737;49.760;6.632;2022-11-20T03:57:20;5.50;99.90
28530;DHT22;15737;49.760;6.632;2022-11-20T03:59:46;5.50;99.90
28530;DHT22;15737;49.760;6.632;2022-11-20T04:02:11;5.40;99.90
28530;DHT22;15737;49.760;6.632;2022-11-20T04:04:37;5.40;99.90
28530;DHT22;15737;49.760;6.632;2022-11-20T04:07:02;5.40;99.90
28530;DHT22;15737;49.760;6.632;2022-11-20T04:09:28;5.50;99.90
28530;DHT22;15737;49.760;6.632;2022-11-20T04:11:54;5.60;99.90
28530;DHT22;15737;49.760;6.632;2022-11-20T04:14:19;5.70;99.90
28530;DHT22;15737;49.760;6.632;2022-11-20T04:16:45;5.90;99.90
28530;DHT22;15737;49.760;6.632;2022-11-20T04:19:13;6.00;99.90
28530;DHT22;15737;49.760;6.632;2022-11-20T04:21:39;6.20;99.90
28530;DHT22;15737;49.760;6.632;2022-11-20T04:24:05;6.30;99.90
28530;DHT22;15737;49.760;6.632;2022-11-20T04:26:31;6.40;99.90
28530;DHT22;15737;49.760;6.632;2022-11-20T04:28:58;6.40;99.90
28530;DHT22;15737;49.760;6.632;2022-11-20T04:31:27;6.40;99.90
28530;DHT22;15737;49.760;6.632;2022-11-20T04:33:53;6.40;99.90
28530;DHT22;15737;49.760;6.632;2022-11-20T04:36:20;6.40;99.90
28530;DHT22;15737;49.760;6.632;2022-11-20T04:38:49;6.50;99.90
28530;DHT22;15737;49.760;6.632;2022-11-20T04:41:17;6.50;99.90
28530;DHT22;15737;49.760;6.632;2022-11-20T04:43:50;6.60;99.90
28530;DHT22;15737;49.760;6.632;2022-11-20T04:46:17;6.60;99.90
28530;DHT22;15737;49.760;6.632;2022-11-20T04:48:43;6.60;99.90
28530;DHT22;15737;49.760;6.632;2022-11-20T04:51:09;6.70;99.90
28530;DHT22;15737;49.760;6.632;2022-11-20T04:53:34;6.60;99.90
28530;DHT22;15737;49.760;6.632;2022-11-20T04:56:06;6.60;99.90
28530;DHT22;15737;49.760;6.632;2022-11-20T04:58:33;6.60;99.90
28530;DHT22;15737;49.760;6.632;2022-11-20T05:03:31;6.70;99.90
28530;DHT22;15737;49.760;6.632;2022-11-20T05:06:00;6.70;99.90
28530;DHT22;15737;49.760;6.632;2022-11-20T05:08:26;6.70;99.90
28530;DHT22;15737;49.760;6.632;2022-11-20T05:10:51;6.70;99.90
28530;DHT22;15737;49.760;6.632;2022-11-20T05:13:17;6.70;99.90
28530;DHT22;15737;49.760;6.632;2022-11-20T05:15:42;6.60;99.90
28530;DHT22;15737;49.760;6.632;2022-11-20T05:18:08;6.60;99.90
28530;DHT22;15737;49.760;6.632;2022-11-20T05:20:33;6.60;99.90
28530;DHT22;15737;49.760;6.632;2022-11-20T05:22:59;6.60;99.90
28530;DHT22;15737;49.760;6.632;2022-11-20T05:25:24;6.60;99.90
28530;DHT22;15737;49.760;6.632;2022-11-20T05:27:50;6.60;99.90
28530;DHT22;15737;49.760;6.632;2022-11-20T05:30:16;6.60;99.90
28530;DHT22;15737;49.760;6.632;2022-11-20T05:32:41;6.60;99.90
28530;DHT22;15737;49.760;6.632;2022-11-20T05:35:07;6.60;99.90
28530;DHT22;15737;49.760;6.632;2022-11-20T05:37:33;6.60;99.90
28530;DHT22;15737;49.760;6.632;2022-11-20T05:39:58;6.60;99.90
28530;DHT22;15737;49.760;6.632;2022-11-20T05:42:24;6.60;99.90
28530;DHT22;15737;49.760;6.632;2022-11-20T05:44:55;6.60;99.90
28530;DHT22;15737;49.760;6.632;2022-11-20T05:47:21;6.60;99.90
28530;DHT22;15737;49.760;6.632;2022-11-20T05:49:46;6.60;99.90
28530;DHT22;15737;49.760;6.632;2022-11-20T05:52:12;6.70;99.90
28530;DHT22;15737;49.760;6.632;2022-11-20T05:54:38;6.70;99.90
28530;DHT22;15737;49.760;6.632;2022-11-20T05:57:03;6.70;99.90
28530;DHT22;15737;49.760;6.632;2022-11-20T05:59:29;6.70;99.90
28530;DHT22;15737;49.760;6.632;2022-11-20T06:01:54;6.70;99.90
28530;DHT22;15737;49.760;6.632;2022-11-20T06:04:19;6.80;99.90
28530;DHT22;15737;49.760;6.632;2022-11-20T06:06:45;6.80;99.90
28530;DHT22;15737;49.760;6.632;2022-11-20T06:09:10;6.80;99.90
28530;DHT22;15737;49.760;6.632;2022-11-20T06:11:36;6.80;99.90
28530;DHT22;15737;49.760;6.632;2022-11-20T06:14:01;6.80;99.90
28530;DHT22;15737;49.760;6.632;2022-11-20T06:16:27;6.80;99.90
28530;DHT22;15737;49.760;6.632;2022-11-20T06:18:52;6.80;99.90
28530;DHT22;15737;49.760;6.632;2022-11-20T06:21:20;6.90;99.90
28530;DHT22;15737;49.760;6.632;2022-11-20T06:23:47;6.90;99.90
28530;DHT22;15737;49.760;6.632;2022-11-20T06:26:15;6.90;99.90
28530;DHT22;15737;49.760;6.632;2022-11-20T06:28:41;6.90;99.90
28530;DHT22;15737;49.760;6.632;2022-11-20T06:31:07;6.90;99.90
28530;DHT22;15737;49.760;6.632;2022-11-20T06:33:35;6.90;99.90
28530;DHT22;15737;49.760;6.632;2022-11-20T06:36:01;6.90;99.90
28530;DHT22;15737;49.760;6.632;2022-11-20T06:38:27;6.90;99.90
28530;DHT22;15737;49.760;6.632;2022-11-20T06:40:53;6.90;99.90
28530;DHT22;15737;49.760;6.632;2022-11-20T06:43:18;6.90;99.90
28530;DHT22;15737;49.760;6.632;2022-11-20T06:45:44;6.90;99.90
28530;DHT22;15737;49.760;6.632;2022-11-20T06:48:10;6.90;99.90
28530;DHT22;15737;49.760;6.632;2022-11-20T06:50:38;7.00;99.90
28530;DHT22;15737;49.760;6.632;2022-11-20T06:53:04;7.00;99.90
28530;DHT22;15737;49.760;6.632;2022-11-20T06:55:31;7.00;99.90
28530;DHT22;15737;49.760;6.632;2022-11-20T06:57:57;7.10;99.90
28530;DHT22;15737;49.760;6.632;2022-11-20T07:00:22;7.10;99.90
28530;DHT22;15737;49.760;6.632;2022-11-20T07:02:48;7.10;99.90
28530;DHT22;15737;49.760;6.632;2022-11-20T07:05:13;7.10;99.90
28530;DHT22;15737;49.760;6.632;2022-11-20T07:07:39;7.20;99.90
28530;DHT22;15737;49.760;6.632;2022-11-20T07:10:05;7.20;99.90
28530;DHT22;15737;49.760;6.632;2022-11-20T07:12:30;7.20;99.90
28530;DHT22;15737;49.760;6.632;2022-11-20T07:14:56;7.20;99.90
28530;DHT22;15737;49.760;6.632;2022-11-20T07:17:22;7.20;99.90
28530;DHT22;15737;49.760;6.632;2022-11-20T07:19:47;7.20;99.90
28530;DHT22;15737;49.760;6.632;2022-11-20T07:22:13;7.30;99.90
28530;DHT22;15737;49.760;6.632;2022-11-20T07:24:38;7.30;99.90
28530;DHT22;15737;49.760;6.632;2022-11-20T07:27:04;7.30;99.90
28530;DHT22;15737;49.760;6.632;2022-11-20T07:29:30;7.30;99.90
28530;DHT22;15737;49.760;6.632;2022-11-20T07:31:55;7.30;99.90
28530;DHT22;15737;49.760;6.632;2022-11-20T07:34:22;7.30;99.90
28530;DHT22;15737;49.760;6.632;2022-11-20T07:36:47;7.30;99.90
28530;DHT22;15737;49.760;6.632;2022-11-20T07:39:13;7.30;99.90
28530;DHT22;15737;49.760;6.632;2022-11-20T07:41:38;7.30;99.90
28530;DHT22;15737;49.760;6.632;2022-11-20T07:44:04;7.30;99.90
28530;DHT22;15737;49.760;6.632;2022-11-20T07:46:33;7.30;99.90
28530;DHT22;15737;49.760;6.632;2022-11-20T07:48:58;7.30;99.90
28530;DHT22;15737;49.760;6.632;2022-11-20T07:51:24;7.20;99.90
28530;DHT22;15737;49.760;6.632;2022-11-20T07:53:51;7.20;99.90
28530;DHT22;15737;49.760;6.632;2022-11-20T07:56:17;7.30;99.90
28530;DHT22;15737;49.760;6.632;2022-11-20T07:58:42;7.20;99.90
28530;DHT22;15737;49.760;6.632;2022-11-20T08:01:08;7.20;99.90
28530;DHT22;15737;49.760;6.632;2022-11-20T08:03:34;7.20;99.90
28530;DHT22;15737;49.760;6.632;2022-11-20T08:06:00;7.20;99.90
28530;DHT22;15737;49.760;6.632;2022-11-20T08:08:29;7.20;99.90
28530;DHT22;15737;49.760;6.632;2022-11-20T08:10:57;7.20;99.90
28530;DHT22;15737;49.760;6.632;2022-11-20T08:13:42;7.30;99.90
28530;DHT22;15737;49.760;6.632;2022-11-20T08:16:26;7.30;99.90
28530;DHT22;15737;49.760;6.632;2022-11-20T08:18:52;7.30;99.90
28530;DHT22;15737;49.760;6.632;2022-11-20T08:21:17;7.30;99.90
28530;DHT22;15737;49.760;6.632;2022-11-20T08:23:42;7.30;99.90
28530;DHT22;15737;49.760;6.632;2022-11-20T08:26:08;7.30;99.90
28530;DHT22;15737;49.760;6.632;2022-11-20T08:28:33;7.30;99.90
28530;DHT22;15737;49.760;6.632;2022-11-20T08:31:00;7.30;99.90
28530;DHT22;15737;49.760;6.632;2022-11-20T08:33:26;7.40;99.90
28530;DHT22;15737;49.760;6.632;2022-11-20T08:35:51;7.40;99.90
28530;DHT22;15737;49.760;6.632;2022-11-20T08:38:17;7.50;99.90
28530;DHT22;15737;49.760;6.632;2022-11-20T08:40:42;7.50;99.90
28530;DHT22;15737;49.760;6.632;2022-11-20T08:43:28;7.60;99.90
28530;DHT22;15737;49.760;6.632;2022-11-20T08:45:56;7.50;99.90
28530;DHT22;15737;49.760;6.632;2022-11-20T08:48:22;7.60;99.90
28530;DHT22;15737;49.760;6.632;2022-11-20T08:50:47;7.70;99.90
28530;DHT22;15737;49.760;6.632;2022-11-20T08:53:13;7.70;99.90
28530;DHT22;15737;49.760;6.632;2022-11-20T08:55:40;7.70;99.90
28530;DHT22;15737;49.760;6.632;2022-11-20T08:58:06;7.70;99.90
28530;DHT22;15737;49.760;6.632;2022-11-20T09:00:33;7.70;99.90
28530;DHT22;15737;49.760;6.632;2022-11-20T09:02:59;7.70;99.90
28530;DHT22;15737;49.760;6.632;2022-11-20T09:05:26;7.70;99.90
28530;DHT22;15737;49.760;6.632;2022-11-20T09:07:52;7.70;99.90
28530;DHT22;15737;49.760;6.632;2022-11-20T09:10:17;7.80;99.90
28530;DHT22;15737;49.760;6.632;2022-11-20T09:12:42;7.90;99.90
28530;DHT22;15737;49.760;6.632;2022-11-20T09:15:08;7.90;99.90
28530;DHT22;15737;49.760;6.632;2022-11-20T09:17:34;7.90;99.90
28530;DHT22;15737;49.760;6.632;2022-11-20T09:19:59;8.00;99.90
28530;DHT22;15737;49.760;6.632;2022-11-20T09:22:25;8.00;99.90
28530;DHT22;15737;49.760;6.632;2022-11-20T09:24:50;8.00;99.90
28530;DHT22;15737;49.760;6.632;2022-11-20T09:27:16;7.90;99.90
28530;DHT22;15737;49.760;6.632;2022-11-20T09:29:48;7.90;99.90
28530;DHT22;15737;49.760;6.632;2022-11-20T09:32:13;8.00;99.90
28530;DHT22;15737;49.760;6.632;2022-11-20T09:34:39;8.10;99.90
28530;DHT22;15737;49.760;6.632;2022-11-20T09:37:04;8.20;99.90
28530;DHT22;15737;49.760;6.632;2022-11-20T09:39:30;8.30;99.90
28530;DHT22;15737;49.760;6.632;2022-11-20T09:42:22;8.40;99.90
28530;DHT22;15737;49.760;6.632;2022-11-20T09:45:02;8.80;99.90
28530;DHT22;15737;49.760;6.632;2022-11-20T09:56:11;9.00;99.90
28530;DHT22;15737;49.760;6.632;2022-11-20T09:58:42;9.20;99.90
28530;DHT22;15737;49.760;6.632;2022-11-20T10:01:21;9.60;99.90
28530;DHT22;15737;49.760;6.632;2022-11-20T10:06:18;10.50;99.90
28530;DHT22;15737;49.760;6.632;2022-11-20T10:08:51;11.90;99.90
28530;DHT22;15737;49.760;6.632;2022-11-20T10:14:38;15.80;99.90
28530;DHT22;15737;49.760;6.632;2022-11-20T10:20:18;15.90;99.90
28530;DHT22;15737;49.760;6.632;2022-11-20T10:25:57;15.20;99.90
28530;DHT22;15737;49.760;6.632;2022-11-20T10:31:04;15.70;99.90
28530;DHT22;15737;49.760;6.632;2022-11-20T10:33:34;15.80;99.90
28530;DHT22;15737;49.760;6.632;2022-11-20T10:38:48;14.10;99.90
28530;DHT22;15737;49.760;6.632;2022-11-20T10:41:21;13.60;99.90
28530;DHT22;15737;49.760;6.632;2022-11-20T10:46:33;12.50;99.90
28530;DHT22;15737;49.760;6.632;2022-11-20T10:48:59;12.20;99.90
28530;DHT22;15737;49.760;6.632;2022-11-20T11:02:24;9.90;99.90
28530;DHT22;15737;49.760;6.632;2022-11-20T11:04:57;9.80;99.90
28530;DHT22;15737;49.760;6.632;2022-11-20T11:07:27;9.80;99.90
28530;DHT22;15737;49.760;6.632;2022-11-20T11:09:56;9.60;99.90
28530;DHT22;15737;49.760;6.632;2022-11-20T11:12:24;9.70;99.90
28530;DHT22;15737;49.760;6.632;2022-11-20T11:14:52;9.90;99.90
28530;DHT22;15737;49.760;6.632;2022-11-20T11:17:29;9.90;99.90
28530;DHT22;15737;49.760;6.632;2022-11-20T11:22:25;9.80;99.90
28530;DHT22;15737;49.760;6.632;2022-11-20T11:24:53;9.70;99.90
28530;DHT22;15737;49.760;6.632;2022-11-20T11:27:19;9.70;99.90
28530;DHT22;15737;49.760;6.632;2022-11-20T11:29:45;9.80;99.90
28530;DHT22;15737;49.760;6.632;2022-11-20T11:32:19;9.90;99.90
28530;DHT22;15737;49.760;6.632;2022-11-20T11:35:03;10.00;99.90
28530;DHT22;15737;49.760;6.632;2022-11-20T11:37:35;10.20;99.90
28530;DHT22;15737;49.760;6.632;2022-11-20T11:40:05;10.20;99.90
28530;DHT22;15737;49.760;6.632;2022-11-20T11:42:32;10.20;99.90
28530;DHT22;15737;49.760;6.632;2022-11-20T11:44:59;10.50;99.90
28530;DHT22;15737;49.760;6.632;2022-11-20T11:47:46;10.80;99.90
28530;DHT22;15737;49.760;6.632;2022-11-20T11:50:22;10.80;99.90
28530;DHT22;15737;49.760;6.632;2022-11-20T11:53:09;10.50;99.90
28530;DHT22;15737;49.760;6.632;2022-11-20T11:58:24;10.40;99.90
28530;DHT22;15737;49.760;6.632;2022-11-20T12:01:07;10.50;99.90
28530;DHT22;15737;49.760;6.632;2022-11-20T12:03:38;10.50;99.90
28530;DHT22;15737;49.760;6.632;2022-11-20T12:06:11;10.60;99.90
28530;DHT22;15737;49.760;6.632;2022-11-20T12:08:51;10.60;99.90
28530;DHT22;15737;49.760;6.632;2022-11-20T12:11:31;10.70;99.90
28530;DHT22;15737;49.760;6.632;2022-11-20T12:14:02;10.90;99.90
28530;DHT22;15737;49.760;6.632;2022-11-20T12:16:34;11.00;99.90
28530;DHT22;15737;49.760;6.632;2022-11-20T12:19:00;11.00;99.90
28530;DHT22;15737;49.760;6.632;2022-11-20T12:21:43;10.80;99.90
28530;DHT22;15737;49.760;6.632;2022-11-20T12:27:24;10.30;99.90
28530;DHT22;15737;49.760;6.632;2022-11-20T12:30:07;10.00;99.90
28530;DHT22;15737;49.760;6.632;2022-11-20T12:38:31;9.50;99.90
28530;DHT22;15737;49.760;6.632;2022-11-20T12:44:40;9.00;99.90
28530;DHT22;15737;49.760;6.632;2022-11-20T12:50:03;8.50;99.90
28530;DHT22;15737;49.760;6.632;2022-11-20T12:52:39;8.50;99.90
28530;DHT22;15737;49.760;6.632;2022-11-20T12:55:23;8.50;99.90
28530;DHT22;15737;49.760;6.632;2022-11-20T12:58:00;8.50;99.90
28530;DHT22;15737;49.760;6.632;2022-11-20T13:00:31;8.50;99.90
28530;DHT22;15737;49.760;6.632;2022-11-20T13:03:23;8.50;99.90
28530;DHT22;15737;49.760;6.632;2022-11-20T13:08:40;8.40;99.90
28530;DHT22;15737;49.760;6.632;2022-11-20T13:16:28;8.40;99.90
28530;DHT22;15737;49.760;6.632;2022-11-20T13:18:56;8.50;99.90
28530;DHT22;15737;49.760;6.632;2022-11-20T13:21:37;8.60;99.90
28530;DHT22;15737;49.760;6.632;2022-11-20T13:24:24;8.60;99.90
28530;DHT22;15737;49.760;6.632;2022-11-20T13:29:43;8.70;99.90
28530;DHT22;15737;49.760;6.632;2022-11-20T13:32:17;8.70;99.90
28530;DHT22;15737;49.760;6.632;2022-11-20T13:34:58;8.70;99.90
28530;DHT22;15737;49.760;6.632;2022-11-20T13:37:58;8.70;99.90
28530;DHT22;15737;49.760;6.632;2022-11-20T13:40:24;8.70;99.90
28530;DHT22;15737;49.760;6.632;2022-11-20T13:43:04;8.60;99.90
28530;DHT22;15737;49.760;6.632;2022-11-20T13:45:32;8.60;99.90
28530;DHT22;15737;49.760;6.632;2022-11-20T13:48:04;8.70;99.90
28530;DHT22;15737;49.760;6.632;2022-11-20T13:50:42;8.70;99.90
28530;DHT22;15737;49.760;6.632;2022-11-20T13:53:27;8.70;99.90
28530;DHT22;15737;49.760;6.632;2022-11-20T13:56:01;8.70;99.90
28530;DHT22;15737;49.760;6.632;2022-11-20T13:58:36;8.60;99.90
28530;DHT22;15737;49.760;6.632;2022-11-20T14:01:32;8.60;99.90
28530;DHT22;15737;49.760;6.632;2022-11-20T14:03:58;8.50;99.90
28530;DHT22;15737;49.760;6.632;2022-11-20T14:08:56;8.40;99.90
28530;DHT22;15737;49.760;6.632;2022-11-20T14:11:29;8.40;99.90
28530;DHT22;15737;49.760;6.632;2022-11-20T14:14:00;8.30;99.90
28530;DHT22;15737;49.760;6.632;2022-11-20T14:16:33;8.30;99.90
28530;DHT22;15737;49.760;6.632;2022-11-20T14:19:28;8.20;99.90
28530;DHT22;15737;49.760;6.632;2022-11-20T14:22:09;8.20;99.90
28530;DHT22;15737;49.760;6.632;2022-11-20T14:24:35;8.20;99.90
28530;DHT22;15737;49.760;6.632;2022-11-20T14:27:00;8.20;99.90
28530;DHT22;15737;49.760;6.632;2022-11-20T14:29:29;8.20;99.90
28530;DHT22;15737;49.760;6.632;2022-11-20T14:31:56;8.10;99.90
28530;DHT22;15737;49.760;6.632;2022-11-20T14:34:27;8.10;99.90
28530;DHT22;15737;49.760;6.632;2022-11-20T14:37:05;8.00;99.90
28530;DHT22;15737;49.760;6.632;2022-11-20T14:39:37;8.00;99.90
28530;DHT22;15737;49.760;6.632;2022-11-20T14:42:16;7.90;99.90
28530;DHT22;15737;49.760;6.632;2022-11-20T14:44:43;7.80;99.90
28530;DHT22;15737;49.760;6.632;2022-11-20T14:47:12;7.70;99.90
28530;DHT22;15737;49.760;6.632;2022-11-20T14:49:38;7.60;99.90
28530;DHT22;15737;49.760;6.632;2022-11-20T14:52:15;7.60;99.90
28530;DHT22;15737;49.760;6.632;2022-11-20T14:54:49;7.50;99.90
28530;DHT22;15737;49.760;6.632;2022-11-20T14:57:30;7.40;99.90
28530;DHT22;15737;49.760;6.632;2022-11-20T15:00:17;7.40;99.90
28530;DHT22;15737;49.760;6.632;2022-11-20T15:02:51;7.30;99.90
28530;DHT22;15737;49.760;6.632;2022-11-20T15:05:19;7.30;99.90
28530;DHT22;15737;49.760;6.632;2022-11-20T15:07:49;7.30;99.90
28530;DHT22;15737;49.760;6.632;2022-11-20T15:10:20;7.30;99.90
28530;DHT22;15737;49.760;6.632;2022-11-20T15:13:05;7.30;99.90
28530;DHT22;15737;49.760;6.632;2022-11-20T15:15:47;7.30;99.90
28530;DHT22;15737;49.760;6.632;2022-11-20T15:18:15;7.30;99.90
28530;DHT22;15737;49.760;6.632;2022-11-20T15:20:42;7.30;99.90
28530;DHT22;15737;49.760;6.632;2022-11-20T15:23:13;7.30;99.90
28530;DHT22;15737;49.760;6.632;2022-11-20T15:25:40;7.30;99.90
28530;DHT22;15737;49.760;6.632;2022-11-20T15:28:16;7.10;99.90
28530;DHT22;15737;49.760;6.632;2022-11-20T15:30:44;7.00;99.90
28530;DHT22;15737;49.760;6.632;2022-11-20T15:33:10;6.90;99.90
28530;DHT22;15737;49.760;6.632;2022-11-20T15:35:38;6.90;99.90
28530;DHT22;15737;49.760;6.632;2022-11-20T15:38:03;6.80;99.90
28530;DHT22;15737;49.760;6.632;2022-11-20T15:40:29;6.80;99.90
28530;DHT22;15737;49.760;6.632;2022-11-20T15:42:54;6.80;99.90
28530;DHT22;15737;49.760;6.632;2022-11-20T15:45:43;6.70;99.90
28530;DHT22;15737;49.760;6.632;2022-11-20T15:48:40;6.70;99.90
28530;DHT22;15737;49.760;6.632;2022-11-20T15:53:35;6.60;99.90
28530;DHT22;15737;49.760;6.632;2022-11-20T15:56:01;6.50;99.90
28530;DHT22;15737;49.760;6.632;2022-11-20T15:58:26;6.40;99.90
28530;DHT22;15737;49.760;6.632;2022-11-20T16:00:52;6.40;99.90
28530;DHT22;15737;49.760;6.632;2022-11-20T16:03:18;6.40;99.90
28530;DHT22;15737;49.760;6.632;2022-11-20T16:05:45;6.30;99.90
28530;DHT22;15737;49.760;6.632;2022-11-20T16:08:11;6.30;99.90
28530;DHT22;15737;49.760;6.632;2022-11-20T16:10:37;6.30;99.90
28530;DHT22;15737;49.760;6.632;2022-11-20T16:13:08;6.20;99.90
28530;DHT22;15737;49.760;6.632;2022-11-20T16:15:58;6.20;99.90
28530;DHT22;15737;49.760;6.632;2022-11-20T16:18:24;6.20;99.90
28530;DHT22;15737;49.760;6.632;2022-11-20T16:20:54;6.20;99.90
28530;DHT22;15737;49.760;6.632;2022-11-20T16:23:20;6.20;99.90
28530;DHT22;15737;49.760;6.632;2022-11-20T16:25:47;6.20;99.90
28530;DHT22;15737;49.760;6.632;2022-11-20T16:28:13;6.20;99.90
28530;DHT22;15737;49.760;6.632;2022-11-20T16:30:39;6.20;99.90
28530;DHT22;15737;49.760;6.632;2022-11-20T16:33:12;6.10;99.90
28530;DHT22;15737;49.760;6.632;2022-11-20T16:35:45;6.10;99.90
28530;DHT22;15737;49.760;6.632;2022-11-20T16:38:11;6.10;99.90
28530;DHT22;15737;49.760;6.632;2022-11-20T16:40:36;6.00;99.90
28530;DHT22;15737;49.760;6.632;2022-11-20T16:43:08;6.00;99.90
28530;DHT22;15737;49.760;6.632;2022-11-20T16:45:36;5.90;99.90
28530;DHT22;15737;49.760;6.632;2022-11-20T16:48:04;5.90;99.90
28530;DHT22;15737;49.760;6.632;2022-11-20T16:50:30;5.90;99.90
28530;DHT22;15737;49.760;6.632;2022-11-20T16:52:55;5.90;99.90
28530;DHT22;15737;49.760;6.632;2022-11-20T16:55:21;5.90;99.90
28530;DHT22;15737;49.760;6.632;2022-11-20T16:57:46;5.90;99.90
28530;DHT22;15737;49.760;6.632;2022-11-20T17:00:12;5.90;99.90
28530;DHT22;15737;49.760;6.632;2022-11-20T17:02:38;5.90;99.90
28530;DHT22;15737;49.760;6.632;2022-11-20T17:05:04;5.90;99.90
28530;DHT22;15737;49.760;6.632;2022-11-20T17:07:30;5.90;99.90
28530;DHT22;15737;49.760;6.632;2022-11-20T17:09:56;5.90;99.90
28530;DHT22;15737;49.760;6.632;2022-11-20T17:12:22;5.90;99.90
28530;DHT22;15737;49.760;6.632;2022-11-20T17:14:47;5.90;99.90
28530;DHT22;15737;49.760;6.632;2022-11-20T17:17:16;5.90;99.90
28530;DHT22;15737;49.760;6.632;2022-11-20T17:19:41;5.90;99.90
28530;DHT22;15737;49.760;6.632;2022-11-20T17:22:07;5.90;99.90
28530;DHT22;15737;49.760;6.632;2022-11-20T17:24:32;5.90;99.90
28530;DHT22;15737;49.760;6.632;2022-11-20T17:26:58;5.90;99.90